• Join FlightAware (Why Join?)
  • Login
  • US Flag 
05:26AM EST


 

Airport Tracker/Info


-or-


 

Live Flight TrackerFlight Track Log ✈ GGN7280 ✈ 05-Jul-2013 ✈ CYYZ - KALB

Flight Track Log - Related Links

Times and Time Zones

All times are in EDT time to prevent confusion due to time zone crossing. See the GGN7280 flight status page for this flight to view local times or setup timezone preferences in your user account.

Time Position Orientation Groundspeed Altitude Reporting Facility
EDT Latitude Longitude Course Direction KTS MPH feet Rate Location/Type
09:38AM 43.6333 -79.6167 133° Southeast 150 173 1,600  Level Toronto Center
09:39AM 43.6000 -79.5667 133° Southeast 160 184 3,100 1,500 Climbing Toronto Center
09:40AM 43.5833 -79.5167 115° Southeast 180 207 4,600 1,380 Climbing Toronto Center
09:41AM 43.5667 -79.4500 109° East 200 230 5,900 660 Climbing Toronto Center
09:42AM 43.5500 -79.3500 103° East 220 253 6,000 300 Climbing Toronto Center
09:43AM 43.5167 -79.2667 119° Southeast 240 276 6,600 1,080 Climbing Toronto Center
09:44AM 43.5000 -79.2000 109° East 220 253 8,200 1,380 Climbing Toronto Center
09:45AM 43.4833 -79.1000 103° East 220 253 9,400 1,200 Climbing Toronto Center
09:46AM 43.4667 -79.0333 109° East 220 253 10,700 1,320 Climbing Toronto Center
09:47AM 43.4333 -78.9500 119° Southeast 220 253 12,100 1,380 Climbing Toronto Center
09:48AM 43.4333 -78.8833 90° East 240 276 13,500 1,260 Climbing Toronto Center
09:49AM 43.4167 -78.7667 101° East 240 276 14,700 1,200 Climbing Toronto Center
09:50AM 43.4167 -78.7000 90° East 240 276 15,900 1,200 Climbing Toronto Center
09:51AM 43.4000 -78.6000 103° East 250 288 17,100 1,140 Climbing Toronto Center
09:52AM 43.3833 -78.4833 101° East 250 288 18,200 1,080 Climbing Toronto Center
09:53AM 43.3667 -78.4000 105° East 250 288 19,300 1,020 Climbing Toronto Center
09:54AM 43.3500 -78.3000 103° East 250 288 20,300 960 Climbing Toronto Center
09:55AM 43.3500 -78.2167 90° East 250 288 21,300 900 Climbing Toronto Center
09:56AM 43.3333 -78.1167 103° East 260 299 22,200 720 Climbing Toronto Center
09:57AM 43.3333 -78.0000 90° East 260 299 22,800 360 Climbing Toronto Center
09:58AM 43.3167 -77.9167 105° East 260 299 23,000 60 Climbing Toronto Center
09:59AM 43.3000 -77.8000 101° East 280 322 23,000  Level Toronto Center
10:00AM 43.3000 -77.7167 90° East 280 322 23,000  Level Toronto Center
10:01AM 43.2833 -77.6000 101° East 280 322 23,000  Level Toronto Center
10:02AM 43.2667 -77.5000 103° East 280 322 23,000  Level Toronto Center
10:03AM 43.2500 -77.3833 101° East 280 322 23,000  Level Toronto Center
10:04AM 43.2333 -77.3000 105° East 280 322 23,000  Level Toronto Center
10:05AM 43.2167 -77.1833 101° East 280 322 23,000  Level Toronto Center
10:06AM 43.2167 -77.1000 90° East 280 322 23,000  Level Toronto Center
10:07AM 43.2000 -76.9833 101° East 280 322 23,000  Level Toronto Center
10:08AM 43.1833 -76.8667 101° East 280 322 23,000  Level Toronto Center
10:09AM 43.1833 -76.7833 90° East 280 322 23,000  Level Toronto Center
10:10AM 43.1500 -76.6667 111° Southeast 280 322 23,000  Level Toronto Center
10:11AM 43.1500 -76.5667 90° East 280 322 23,000  Level Toronto Center
10:12AM 43.1333 -76.4500 101° East 280 322 23,000  Level Toronto Center
10:13AM 43.1167 -76.3500 103° East 280 322 23,000  Level Toronto Center
10:14AM 43.1000 -76.2500 103° East 280 322 23,000  Level Toronto Center
10:15AM 43.1000 -76.1333 90° East 280 322 23,000 -300 Level Toronto Center
10:16AM 43.0667 -76.0333 114° Southeast 280 322 22,500 -600 Descending Toronto Center
10:17AM 43.0500 -75.9333 103° East 300 345 21,800 -900 Descending Toronto Center
10:18AM 43.0333 -75.8000 100° East 310 357 20,700 -960 Descending Toronto Center
10:19AM 43.0333 -75.6833 90° East 320 368 19,900 -900 Descending Toronto Center
10:20AM 43.0000 -75.5500 109° East 330 380 19,000 -900 Descending Toronto Center
10:21AM 42.9833 -75.4333 101° East 320 368 18,100 -900 Descending Toronto Center
10:22AM 42.9667 -75.3333 103° East 330 380 17,300 -900 Descending Toronto Center
10:23AM 42.9667 -75.1833 90° East 320 368 16,400 -1,020 Descending Toronto Center
10:24AM 42.9333 -75.0833 114° Southeast 320 368 15,300 -1,200 Descending Toronto Center
10:25AM 42.9500 -74.9333 81° East 330 380 14,100 -1,140 Descending Toronto Center
10:26AM 42.9736 -74.9261 13° North 334 384 13,600 -900 Descending Boston Center
10:26AM 42.9794 -74.8411 85° East 318 366 13,000 -1,140 Descending Boston Center
10:27AM 42.9928 -74.7081 82° East 326 375 11,600 -960 Descending Boston Center
10:28AM 43.0031 -74.6036 82° East 321 369 11,100 -300 Descending Boston Center
10:29AM 43.0178 -74.4847 80° East 302 348 11,000 -60 Descending Boston Center
10:30AM 43.0278 -74.3856 82° East 288 331 11,000 -720 Level Boston Center
10:31AM 43.0403 -74.2667 82° East 288 331 9,600 -1,140 Descending Boston Center
10:32AM 43.0500 -74.1647 83° East 297 342 8,800 -1,020 Descending Boston Center
10:33AM 43.0575 -74.0883 82° East 292 336 8,000 -1,260 Descending Boston Center
10:34AM 43.0275 -73.9936 113° Southeast 280 322 6,800 -1,440 Descending Boston Center
10:35AM 42.9847 -73.9217 129° Southeast 247 284 5,200 -1,380 Descending Boston Center
10:36AM 42.9419 -73.8469 128° Southeast 236 272 4,000 -1,260 Descending Boston Center
10:37AM 42.8986 -73.8089 147° Southeast 221 254 3,000 -1,080 Descending Boston Center
10:37AM 42.8736 -73.8083 179° South 202 232 2,600 -780 Descending Boston Center
10:38AM 42.8175 -73.8017 175° South 202 232 1,800 -840 Descending Boston Center
10:41AM 42.7491 -73.8020 179° South  Level Estimated
10:48AM 42.7491 -73.8020 North  Level Estimated
10:49AM 42.7491 -73.8020 North  Level Estimated
10:50AM 42.7491 -73.8020 North  Level Estimated